Aeroporto :
LOGIN :

Iscrizione | Disclaimer

   EN    FR    IT 

 










Sommario :    VFR   VFR Marginale   IFR   IFR Intensivo   IFR Molto Intensivo
Visibilità : 
Base nubi : 
>= 8 km
>= 3000ft
5 / 8 km
1000 / 3000 ft
1500m / 5 km
500 / 1000 ft
800 / 1500m
200 / 500 ft
< 800m
< 200 ft
Simboli :   Temporali  Nebbia  Neve Forte  Precipitazioni Forti  Vento > 20 kt
SIGMETs :   Varie  Temporali  Ghiacco  Turbolenza  Onda orograficha  Ceneri Vulcaniche






- Altitudine del aeroporto : 74 ft
- Codice IATA : EIN


EHEH - Eindhoven

ULTIMO METAR :
  • 260629Z AUTO 20009KT 9999 BKN021 BKN210 BKN280 09/08 Q1000 WHT TEMPO SCT016 BKN020 BECMG 20010KT

METARs OBSOLETI :
  • 260625Z AUTO 20009KT 9999 SCT022 OVC210 09/08 Q1000 WHT TEMPO SCT016 BKN020 BECMG 20010KT
  • 260555Z AUTO 20007KT 9999 BKN020 OVC220 09/08 Q1000 WHT TEMPO SCT016 BKN020 BECMG 20010KT
  • 260548Z AUTO 19007KT 9999 BKN018 OVC220 09/08 Q1000 WHT TEMPO SCT016 BKN020 BECMG 20010KT
  • 260544Z AUTO 19007KT 9999 SCT018 OVC220 09/08 Q1000 WHT TEMPO SCT016 BKN020 BECMG 20010KT
  • 260455Z AUTO 17007KT 9999 OVC210 09/08 Q1000 BLU
  • 260425Z AUTO 18007KT 9999 FEW012 BKN016 OVC220 09/08 Q1000 WHT
  • 260421Z AUTO 18007KT 9999 FEW012 SCT017 OVC220 09/08 Q1000 WHT
  • 260403Z AUTO 17007KT 9999 FEW016 OVC220 09/08 Q1000 BLU

TAF TAF EHEH
Valido dal 26 a 06 ore il 27 a 12 ore UTC


260538Z 2606/2712 18008KT 9999 SCT015 BKN040
BECMG 2607/2610 21013G25KT
BECMG 2610/2612 SCT020
BECMG 2614/2616 21010KT
PROB30
TEMPO 2615/2700 4500 SHRA FEW012 SCT018CB BKN025
PROB30
TEMPO 2704/2709 BKN010
BECMG 2709/2712 21012G22KT



MetMap, La meteo Aeronautica in un colpo d'occhio ! - Copyright ORBIFLY Dicembre 2007 - Disclaimer

ORBIFLY MET'MAP TEAM :

Programmazione e sviluppo : Alexandra Zaïnal
Concezione : Baudouin d'Aumeries
Aiuto per la programmazione : Marc-Olivier Méhu
Supporto tecnico e logistico : Manuel Goepfert
Aiuto per la traduzione : Arnaldo La Scala

Contatto : metmap@orbifly.com




FONTI E CREDITI :

   NOAA